BKB6 CYKA-KRTS
Flight info
| Callsign | BKB6 |
|---|---|
| Flight time | N/A |
| Altitude | 30000 |
| Route | KEBRA DCT YDC J503 SEA/N0411F290 J5 PYRAM |
| Aircraft | RJ1H/M-SDFGIRWY/LB1 |
Departure
| Time | 2026-04-22 17:09 |
|---|---|
| Airport | Kamloops John Moose Fulton Field Regional Airport (CYKA) |
Arrival
| Time | N/A |
|---|---|
| Airport | Reno-Stead Airport (KRTS) |
| Time | Latitude | Longitude | Altitude | Speed | Heading |
|---|---|---|---|---|---|
| 2026-04-22 16:45 | 50.70415 | -120.44299 | 1134 ft | 0 kts | 62° |
| 2026-04-22 17:01 | 50.70417 | -120.44289 | 1134 ft | 2 kts | 76° |
| 2026-04-22 17:01 | 50.70410 | -120.44261 | 1138 ft | 4 kts | 139° |
| 2026-04-22 17:01 | 50.70380 | -120.44261 | 1138 ft | 5 kts | 209° |
| 2026-04-22 17:01 | 50.70366 | -120.44317 | 1134 ft | 6 kts | 296° |
| 2026-04-22 17:02 | 50.70402 | -120.44368 | 1134 ft | 7 kts | 307° |
| 2026-04-22 17:02 | 50.70421 | -120.44442 | 1137 ft | 8 kts | 283° |
| 2026-04-22 17:02 | 50.70436 | -120.44540 | 1134 ft | 10 kts | 283° |
| 2026-04-22 17:02 | 50.70454 | -120.44662 | 1136 ft | 13 kts | 283° |
| 2026-04-22 17:03 | 50.70476 | -120.44812 | 1137 ft | 15 kts | 283° |
| 2026-04-22 17:03 | 50.70501 | -120.44982 | 1137 ft | 17 kts | 284° |
| 2026-04-22 17:03 | 50.70516 | -120.45168 | 1134 ft | 18 kts | 251° |
| 2026-04-22 17:03 | 50.70447 | -120.45349 | 1136 ft | 20 kts | 238° |
| 2026-04-22 17:04 | 50.70413 | -120.45556 | 1141 ft | 21 kts | 279° |
| 2026-04-22 17:04 | 50.70450 | -120.45786 | 1137 ft | 23 kts | 285° |
| 2026-04-22 17:04 | 50.70486 | -120.46035 | 1136 ft | 23 kts | 284° |
| 2026-04-22 17:04 | 50.70564 | -120.46226 | 1137 ft | 21 kts | 334° |
| 2026-04-22 17:05 | 50.70672 | -120.46326 | 1135 ft | 13 kts | 319° |
| 2026-04-22 17:05 | 50.70700 | -120.46437 | 1136 ft | 9 kts | 275° |
| 2026-04-22 17:05 | 50.70663 | -120.46499 | 1136 ft | 6 kts | 211° |
| 2026-04-22 17:05 | 50.70632 | -120.46501 | 1137 ft | 1 kts | 183° |
| 2026-04-22 17:07 | 50.70598 | -120.46508 | 1134 ft | 12 kts | 191° |
| 2026-04-22 17:08 | 50.70535 | -120.46404 | 1134 ft | 25 kts | 103° |
| 2026-04-22 17:08 | 50.70441 | -120.45779 | 1137 ft | 92 kts | 103° |
| 2026-04-22 17:08 | 50.70253 | -120.44480 | 1138 ft | 147 kts | 102° |
| 2026-04-22 17:08 | 50.70014 | -120.42793 | 1386 ft | 165 kts | 102° |
| 2026-04-22 17:09 | 50.69775 | -120.40942 | 1780 ft | 179 kts | 101° |
| 2026-04-22 17:09 | 50.69476 | -120.39048 | 2335 ft | 181 kts | 105° |
| 2026-04-22 17:09 | 50.69228 | -120.37758 | 2610 ft | 187 kts | 109° |
| 2026-04-22 17:09 | 50.68548 | -120.34968 | 3078 ft | 229 kts | 110° |
| 2026-04-22 17:10 | 50.67907 | -120.32450 | 3327 ft | 263 kts | 112° |
| 2026-04-22 17:10 | 50.67186 | -120.29780 | 4273 ft | 264 kts | 113° |